Time;durP1;ratioP1;P1;durP2;ratioP2;P2;SDS_P1;SDS_P2;PMS_P1;PMS_P2;Temp;Humidity;BMP_temperature;BMP_pressure;BME280_temperature;BME280_humidity;BME280_pressure;Samples;Min_cycle;Max_cycle;Signal;HPM_P1;HPM_P2
2022/03/25 00:01:58;;;;;;;;;;;5.30;99.90;;;;;;4988697;28;19981;-73
2022/03/25 00:04:24;;;;;;;;;;;5.20;99.90;;;;;;4969452;28;19932;-72
2022/03/25 00:06:49;;;;;;;;;;;5.20;99.90;;;;;;4969133;28;20032;-72
2022/03/25 00:09:15;;;;;;;;;;;5.10;99.90;;;;;;4970681;28;19991;-72
2022/03/25 00:11:41;;;;;;;;;;;5.10;99.90;;;;;;4969779;28;19929;-73
2022/03/25 00:14:06;;;;;;;;;;;5.10;99.90;;;;;;4968815;28;20031;-73
2022/03/25 00:16:33;;;;;;;;;;;5.10;99.90;;;;;;4962943;28;19999;-72
2022/03/25 00:18:58;;;;;;;;;;;5.10;99.90;;;;;;4966595;28;20019;-72
2022/03/25 00:21:24;;;;;;;;;;;5.10;99.90;;;;;;4948571;28;19979;-72
2022/03/25 00:23:49;;;;;;;;;;;5.10;99.90;;;;;;4982089;28;19940;-72
2022/03/25 00:26:15;;;;;;;;;;;5.10;99.90;;;;;;4962816;28;20275;-73
2022/03/25 00:28:41;;;;;;;;;;;5.10;99.90;;;;;;4962562;28;19929;-72
2022/03/25 00:31:07;;;;;;;;;;;5.20;99.90;;;;;;4980099;28;19933;-73
2022/03/25 00:33:36;;;;;;;;;;;5.20;99.90;;;;;;4985377;28;19971;-72
2022/03/25 00:36:02;;;;;;;;;;;5.20;99.90;;;;;;4987032;28;20285;-72
2022/03/25 00:38:28;;;;;;;;;;;5.20;99.90;;;;;;4967077;28;19929;-73
2022/03/25 00:40:54;;;;;;;;;;;5.10;99.90;;;;;;4982855;28;19941;-73
2022/03/25 00:43:20;;;;;;;;;;;5.00;99.90;;;;;;4962136;28;19925;-73
2022/03/25 00:45:46;;;;;;;;;;;5.00;99.90;;;;;;4963764;28;23044;-72
2022/03/25 00:48:13;;;;;;;;;;;5.00;99.90;;;;;;4980177;28;20243;-73
2022/03/25 00:50:39;;;;;;;;;;;4.90;99.90;;;;;;4963554;28;20061;-73
2022/03/25 00:53:05;;;;;;;;;;;4.90;99.90;;;;;;4982234;28;19929;-72
2022/03/25 00:55:31;;;;;;;;;;;4.90;99.90;;;;;;4982165;28;20275;-72
2022/03/25 00:57:58;;;;;;;;;;;4.90;99.90;;;;;;4978265;28;20240;-73
2022/03/25 01:00:24;;;;;;;;;;;4.80;99.90;;;;;;4961652;28;19929;-73
2022/03/25 01:02:49;;;;;;;;;;;4.80;99.90;;;;;;4952399;28;19929;-73
2022/03/25 01:05:17;;;;;;;;;;;4.70;99.90;;;;;;4969659;28;19936;-73
2022/03/25 01:07:43;;;;;;;;;;;4.70;99.90;;;;;;4984062;28;19969;-73
2022/03/25 01:10:09;;;;;;;;;;;4.70;99.90;;;;;;4967729;28;20614;-73
2022/03/25 01:12:35;;;;;;;;;;;4.70;99.90;;;;;;4981383;28;19972;-73
2022/03/25 01:15:01;;;;;;;;;;;4.60;99.90;;;;;;4964288;28;19929;-73
2022/03/25 01:17:27;;;;;;;;;;;4.70;99.90;;;;;;4966507;28;19939;-73
2022/03/25 01:19:53;;;;;;;;;;;4.60;99.90;;;;;;4984521;28;19955;-73
2022/03/25 01:22:18;;;;;;;;;;;4.60;99.90;;;;;;4987468;28;19933;-73
2022/03/25 01:24:44;;;;;;;;;;;4.60;99.90;;;;;;4981672;28;20479;-73
2022/03/25 01:27:10;;;;;;;;;;;4.60;99.90;;;;;;4982508;28;19925;-73
2022/03/25 01:29:35;;;;;;;;;;;4.50;99.90;;;;;;4969889;28;19936;-73
2022/03/25 01:32:01;;;;;;;;;;;4.50;99.90;;;;;;4962237;28;19938;-73
2022/03/25 01:34:27;;;;;;;;;;;4.50;99.90;;;;;;4966559;28;19941;-73
2022/03/25 01:36:53;;;;;;;;;;;4.60;99.90;;;;;;4967735;28;20279;-73
2022/03/25 01:39:18;;;;;;;;;;;4.50;99.90;;;;;;4969476;28;19988;-73
2022/03/25 01:41:47;;;;;;;;;;;4.50;99.90;;;;;;4965189;28;20721;-73
2022/03/25 01:44:13;;;;;;;;;;;4.50;99.90;;;;;;4964567;28;19929;-73
2022/03/25 01:46:39;;;;;;;;;;;4.40;99.90;;;;;;4968727;28;20027;-73
2022/03/25 01:49:05;;;;;;;;;;;4.40;99.90;;;;;;4967888;28;19995;-73
2022/03/25 01:51:32;;;;;;;;;;;4.40;99.90;;;;;;4983005;28;19980;-73
2022/03/25 01:54:17;;;;;;;;;;;4.40;99.90;;;;;;4967203;28;19972;-73
2022/03/25 01:56:42;;;;;;;;;;;4.40;99.90;;;;;;4969460;28;20279;-73
2022/03/25 01:59:09;;;;;;;;;;;4.30;99.90;;;;;;4970867;28;19980;-73
2022/03/25 02:01:34;;;;;;;;;;;4.30;99.90;;;;;;4989513;28;20055;-72
2022/03/25 02:04:00;;;;;;;;;;;4.20;99.90;;;;;;4994039;28;20080;-72
2022/03/25 02:06:26;;;;;;;;;;;4.20;99.90;;;;;;4965774;28;19940;-73
2022/03/25 02:08:52;;;;;;;;;;;4.20;99.90;;;;;;4966377;28;19926;-73
2022/03/25 02:11:18;;;;;;;;;;;4.20;99.90;;;;;;4969264;28;20451;-72
2022/03/25 02:13:44;;;;;;;;;;;4.20;99.90;;;;;;4990241;28;19937;-72
2022/03/25 02:16:09;;;;;;;;;;;4.20;99.90;;;;;;4962241;28;19936;-72
2022/03/25 02:18:35;;;;;;;;;;;4.20;99.90;;;;;;4989929;28;19956;-73
2022/03/25 02:21:01;;;;;;;;;;;4.20;99.90;;;;;;4994746;28;20329;-72
2022/03/25 02:23:26;;;;;;;;;;;4.20;99.90;;;;;;4976608;28;19959;-72
2022/03/25 02:25:53;;;;;;;;;;;4.10;99.90;;;;;;4988219;28;20032;-73
2022/03/25 02:28:19;;;;;;;;;;;4.20;99.90;;;;;;4994197;28;19956;-73
2022/03/25 02:30:44;;;;;;;;;;;4.10;99.90;;;;;;4992745;28;20295;-73
2022/03/25 02:33:12;;;;;;;;;;;4.00;99.90;;;;;;4958946;28;20315;-73
2022/03/25 02:35:47;;;;;;;;;;;4.00;99.90;;;;;;4995736;28;19929;-73
2022/03/25 02:38:17;;;;;;;;;;;3.90;99.90;;;;;;4975595;28;20016;-73
2022/03/25 02:40:43;;;;;;;;;;;3.90;99.90;;;;;;4971823;28;19947;-73
2022/03/25 02:43:09;;;;;;;;;;;3.90;99.90;;;;;;4977859;28;20468;-73
2022/03/25 02:45:34;;;;;;;;;;;3.80;99.90;;;;;;4973800;28;19936;-72
2022/03/25 02:48:02;;;;;;;;;;;3.80;99.90;;;;;;4980595;28;19972;-72
2022/03/25 02:50:28;;;;;;;;;;;3.70;99.90;;;;;;4997925;28;19929;-73
2022/03/25 02:52:54;;;;;;;;;;;3.70;99.90;;;;;;4976548;28;20026;-73
2022/03/25 02:55:20;;;;;;;;;;;3.60;99.90;;;;;;4975330;28;19929;-73
2022/03/25 02:57:46;;;;;;;;;;;3.60;99.90;;;;;;4990714;28;20022;-73
2022/03/25 03:00:11;;;;;;;;;;;3.50;99.90;;;;;;4976804;28;19945;-73
2022/03/25 03:02:38;;;;;;;;;;;3.50;99.90;;;;;;4988804;28;20390;-73
2022/03/25 03:05:05;;;;;;;;;;;3.40;99.90;;;;;;4988117;28;19984;-73
2022/03/25 03:07:30;;;;;;;;;;;3.40;99.90;;;;;;4975891;28;20020;-73
2022/03/25 03:09:56;;;;;;;;;;;3.30;99.90;;;;;;4990735;28;19936;-73
2022/03/25 03:12:22;;;;;;;;;;;3.30;99.90;;;;;;4987579;28;19987;-73
2022/03/25 03:14:48;;;;;;;;;;;3.30;99.90;;;;;;4990182;28;20300;-73
2022/03/25 03:17:15;;;;;;;;;;;3.40;99.90;;;;;;4974523;28;19936;-73
2022/03/25 03:19:40;;;;;;;;;;;3.30;99.90;;;;;;4974989;28;19925;-73
2022/03/25 03:22:06;;;;;;;;;;;3.30;99.90;;;;;;4985834;28;20371;-73
2022/03/25 03:24:32;;;;;;;;;;;3.30;99.90;;;;;;4968000;28;20286;-73
2022/03/25 03:27:00;;;;;;;;;;;3.20;99.90;;;;;;4971976;28;19929;-73
2022/03/25 03:29:26;;;;;;;;;;;3.20;99.90;;;;;;4970126;28;19929;-73
2022/03/25 03:31:52;;;;;;;;;;;3.10;99.90;;;;;;4987081;28;20468;-73
2022/03/25 03:34:17;;;;;;;;;;;3.10;99.90;;;;;;4987407;28;19936;-73
2022/03/25 03:36:43;;;;;;;;;;;3.00;99.90;;;;;;4988549;28;20488;-73
2022/03/25 03:39:11;;;;;;;;;;;2.90;99.90;;;;;;4984285;28;19930;-73
2022/03/25 03:41:37;;;;;;;;;;;2.90;99.90;;;;;;4965616;28;19934;-73
2022/03/25 03:44:03;;;;;;;;;;;2.80;99.90;;;;;;4971866;28;19929;-73
2022/03/25 03:46:28;;;;;;;;;;;2.90;99.90;;;;;;4973312;28;20514;-73
2022/03/25 03:48:54;;;;;;;;;;;2.80;99.90;;;;;;4972073;28;19937;-73
2022/03/25 03:51:19;;;;;;;;;;;2.80;99.90;;;;;;4989971;28;19936;-73
2022/03/25 03:53:45;;;;;;;;;;;2.80;99.90;;;;;;4968421;28;19987;-73
2022/03/25 03:56:11;;;;;;;;;;;2.80;99.90;;;;;;4980844;28;19936;-73
2022/03/25 03:58:36;;;;;;;;;;;2.80;99.90;;;;;;4984919;28;20493;-73
2022/03/25 04:01:03;;;;;;;;;;;2.70;99.90;;;;;;4970662;28;20285;-73
2022/03/25 04:03:29;;;;;;;;;;;2.70;99.90;;;;;;4986349;28;20599;-73
2022/03/25 04:05:55;;;;;;;;;;;2.50;99.90;;;;;;4965653;28;20350;-73
2022/03/25 04:08:23;;;;;;;;;;;2.40;99.90;;;;;;4968668;28;19936;-73
2022/03/25 04:10:48;;;;;;;;;;;2.40;99.90;;;;;;4980468;28;20349;-73
2022/03/25 04:13:14;;;;;;;;;;;2.50;99.90;;;;;;4970281;28;19990;-73
2022/03/25 04:15:40;;;;;;;;;;;2.50;99.90;;;;;;4987941;28;19952;-73
2022/03/25 04:18:05;;;;;;;;;;;2.40;99.90;;;;;;4967726;28;20212;-73
2022/03/25 04:20:31;;;;;;;;;;;2.30;99.90;;;;;;4953143;28;20014;-73
2022/03/25 04:22:57;;;;;;;;;;;2.40;99.90;;;;;;4961261;28;20381;-73
2022/03/25 04:25:22;;;;;;;;;;;2.40;99.90;;;;;;4980598;28;19937;-73
2022/03/25 04:27:58;;;;;;;;;;;2.30;99.90;;;;;;4966480;28;19929;-73
2022/03/25 04:30:25;;;;;;;;;;;2.30;99.90;;;;;;4964013;28;20023;-73
2022/03/25 04:32:51;;;;;;;;;;;2.30;99.90;;;;;;4985780;28;20024;-73
2022/03/25 04:35:17;;;;;;;;;;;2.30;99.90;;;;;;4969184;28;20497;-74
2022/03/25 04:37:42;;;;;;;;;;;2.30;99.90;;;;;;4987492;28;19936;-73
2022/03/25 04:40:12;;;;;;;;;;;2.20;99.90;;;;;;4973680;28;19939;-73
2022/03/25 04:42:38;;;;;;;;;;;2.10;99.90;;;;;;4992610;28;19937;-73
2022/03/25 04:45:03;;;;;;;;;;;2.20;99.90;;;;;;4979480;28;19933;-73
2022/03/25 04:47:29;;;;;;;;;;;2.10;99.90;;;;;;4972569;28;20554;-73
2022/03/25 04:49:56;;;;;;;;;;;2.20;99.90;;;;;;4988186;28;19935;-73
2022/03/25 04:52:21;;;;;;;;;;;2.20;99.90;;;;;;4952931;28;20294;-73
2022/03/25 04:54:47;;;;;;;;;;;2.10;99.90;;;;;;4986174;28;19929;-73
2022/03/25 04:57:12;;;;;;;;;;;2.10;99.90;;;;;;4968805;28;20008;-73
2022/03/25 04:59:38;;;;;;;;;;;2.00;99.90;;;;;;4989592;28;20449;-73
2022/03/25 05:02:04;;;;;;;;;;;2.10;99.90;;;;;;4984334;28;20368;-73
2022/03/25 05:04:29;;;;;;;;;;;2.20;99.90;;;;;;4982230;28;20758;-73
2022/03/25 05:06:55;;;;;;;;;;;2.10;99.90;;;;;;4967580;28;20347;-73
2022/03/25 05:09:21;;;;;;;;;;;2.10;99.90;;;;;;4981514;28;19929;-73
2022/03/25 05:11:46;;;;;;;;;;;2.10;99.90;;;;;;4960651;28;19945;-73
2022/03/25 05:14:14;;;;;;;;;;;2.20;99.90;;;;;;4982315;28;19929;-73
2022/03/25 05:16:39;;;;;;;;;;;2.20;99.90;;;;;;4986241;28;20660;-73
2022/03/25 05:19:05;;;;;;;;;;;2.10;99.90;;;;;;4984234;28;19933;-73
2022/03/25 05:21:30;;;;;;;;;;;2.20;99.90;;;;;;4980219;28;19933;-73
2022/03/25 05:23:56;;;;;;;;;;;2.20;99.90;;;;;;4984797;28;20437;-73
2022/03/25 05:26:22;;;;;;;;;;;2.20;99.90;;;;;;4966702;28;20040;-73
2022/03/25 05:28:47;;;;;;;;;;;2.30;99.90;;;;;;4984514;28;20472;-73
2022/03/25 05:31:13;;;;;;;;;;;2.30;99.90;;;;;;4971891;28;20024;-73
2022/03/25 05:33:39;;;;;;;;;;;2.30;99.90;;;;;;4997916;28;19940;-73
2022/03/25 05:36:05;;;;;;;;;;;2.20;99.90;;;;;;4963080;28;20303;-73
2022/03/25 05:38:31;;;;;;;;;;;2.30;99.90;;;;;;4980371;28;19992;-73
2022/03/25 05:40:56;;;;;;;;;;;2.20;99.90;;;;;;4980172;28;19933;-73
2022/03/25 05:43:22;;;;;;;;;;;2.30;99.90;;;;;;4966568;28;19935;-73
2022/03/25 05:45:48;;;;;;;;;;;2.20;99.90;;;;;;4962790;28;19929;-73
2022/03/25 05:48:13;;;;;;;;;;;2.30;99.90;;;;;;4965722;28;19930;-73
2022/03/25 05:50:39;;;;;;;;;;;2.30;99.90;;;;;;4965515;28;20036;-73
2022/03/25 05:53:05;;;;;;;;;;;2.30;99.90;;;;;;4965814;28;20383;-73
2022/03/25 05:55:31;;;;;;;;;;;2.40;99.90;;;;;;4966480;28;20008;-73
2022/03/25 05:57:57;;;;;;;;;;;2.40;99.90;;;;;;4981263;28;20302;-73
2022/03/25 06:00:23;;;;;;;;;;;2.50;99.90;;;;;;4970850;28;19964;-73
2022/03/25 06:02:48;;;;;;;;;;;2.40;99.90;;;;;;4985079;28;20139;-73
2022/03/25 06:05:14;;;;;;;;;;;2.50;99.90;;;;;;4964522;28;20445;-73
2022/03/25 06:07:41;;;;;;;;;;;2.40;99.90;;;;;;4966129;28;19929;-73
2022/03/25 06:10:08;;;;;;;;;;;2.50;99.90;;;;;;4966099;28;20436;-73
2022/03/25 06:12:34;;;;;;;;;;;2.50;99.90;;;;;;4984840;28;21225;-73
2022/03/25 06:15:00;;;;;;;;;;;2.60;99.90;;;;;;4968426;28;19933;-72
2022/03/25 06:17:26;;;;;;;;;;;2.70;99.90;;;;;;4979368;28;20044;-73
2022/03/25 06:19:52;;;;;;;;;;;2.70;99.90;;;;;;4979265;28;19929;-73
2022/03/25 06:22:18;;;;;;;;;;;2.80;99.90;;;;;;4985723;28;19928;-73
2022/03/25 06:24:44;;;;;;;;;;;2.90;99.90;;;;;;5003262;28;20350;-73
2022/03/25 06:27:10;;;;;;;;;;;2.90;99.90;;;;;;4989030;28;20310;-73
2022/03/25 06:29:37;;;;;;;;;;;3.00;99.90;;;;;;4998760;28;19936;-73
2022/03/25 06:32:07;;;;;;;;;;;3.10;99.90;;;;;;5002405;28;19925;-73
2022/03/25 06:34:34;;;;;;;;;;;3.20;99.90;;;;;;4987381;28;19976;-73
2022/03/25 06:37:00;;;;;;;;;;;3.30;99.90;;;;;;4971611;28;19937;-73
2022/03/25 06:39:26;;;;;;;;;;;3.40;99.90;;;;;;5000901;28;19925;-72
2022/03/25 06:41:51;;;;;;;;;;;3.40;99.90;;;;;;5001988;28;19987;-72
2022/03/25 06:44:17;;;;;;;;;;;3.60;99.90;;;;;;4983183;28;20317;-73
2022/03/25 06:46:43;;;;;;;;;;;3.70;99.90;;;;;;4999073;28;19984;-73
2022/03/25 06:49:09;;;;;;;;;;;3.80;99.90;;;;;;4984384;28;20016;-73
2022/03/25 06:51:35;;;;;;;;;;;3.70;99.90;;;;;;4983289;28;19937;-73
2022/03/25 06:54:01;;;;;;;;;;;3.90;99.90;;;;;;4980804;28;19933;-73
2022/03/25 06:56:27;;;;;;;;;;;4.10;99.90;;;;;;5000956;28;20464;-73
2022/03/25 06:58:53;;;;;;;;;;;4.30;99.90;;;;;;4985637;28;20028;-73
2022/03/25 07:01:18;;;;;;;;;;;4.30;99.90;;;;;;5003703;28;19933;-72
2022/03/25 07:03:44;;;;;;;;;;;4.40;99.90;;;;;;4985142;28;19929;-72
2022/03/25 07:06:10;;;;;;;;;;;4.50;99.90;;;;;;4986211;28;19944;-72
2022/03/25 07:08:37;;;;;;;;;;;4.40;99.90;;;;;;4981827;28;20811;-71
2022/03/25 07:11:04;;;;;;;;;;;4.40;99.90;;;;;;4990526;28;19929;-71
2022/03/25 07:13:30;;;;;;;;;;;4.30;99.90;;;;;;4983795;28;19933;-72
2022/03/25 07:15:56;;;;;;;;;;;4.00;99.90;;;;;;4985150;28;20633;-73
2022/03/25 07:18:21;;;;;;;;;;;4.20;99.90;;;;;;5006268;28;19929;-73
2022/03/25 07:20:47;;;;;;;;;;;4.30;99.90;;;;;;5003695;28;20035;-73
2022/03/25 07:23:13;;;;;;;;;;;4.40;99.90;;;;;;4991241;28;19936;-72
2022/03/25 07:25:38;;;;;;;;;;;4.60;99.90;;;;;;5008674;28;20761;-72
2022/03/25 07:28:04;;;;;;;;;;;4.60;99.90;;;;;;5006472;28;19958;-74
2022/03/25 07:30:30;;;;;;;;;;;4.70;99.90;;;;;;4984036;28;19937;-73
2022/03/25 07:32:55;;;;;;;;;;;4.90;99.90;;;;;;4970695;28;19929;-73
2022/03/25 07:35:21;;;;;;;;;;;4.90;99.90;;;;;;4985812;28;19933;-73
2022/03/25 07:37:47;;;;;;;;;;;5.10;99.90;;;;;;4985752;28;19935;-73
2022/03/25 07:40:13;;;;;;;;;;;5.30;99.90;;;;;;5006088;28;19929;-73
2022/03/25 07:42:40;;;;;;;;;;;5.50;99.90;;;;;;4982585;28;20579;-73
2022/03/25 07:45:08;;;;;;;;;;;5.70;99.90;;;;;;4986847;28;19963;-73
2022/03/25 07:47:39;;;;;;;;;;;6.10;99.90;;;;;;5004646;28;20438;-72
2022/03/25 07:50:05;;;;;;;;;;;6.50;99.90;;;;;;4982503;28;19933;-73
2022/03/25 07:52:31;;;;;;;;;;;6.80;99.90;;;;;;4986847;28;20050;-74
2022/03/25 07:54:56;;;;;;;;;;;7.00;99.90;;;;;;5005246;28;19929;-73
2022/03/25 07:57:22;;;;;;;;;;;7.10;99.90;;;;;;5003513;28;19982;-73
2022/03/25 07:59:47;;;;;;;;;;;7.40;99.90;;;;;;4984252;28;19965;-73
2022/03/25 08:02:13;;;;;;;;;;;7.30;99.90;;;;;;4984899;28;19925;-73
2022/03/25 08:04:39;;;;;;;;;;;7.50;99.90;;;;;;4986836;28;19937;-73
2022/03/25 08:07:04;;;;;;;;;;;7.30;99.90;;;;;;4983281;28;20016;-73
2022/03/25 08:09:30;;;;;;;;;;;7.40;99.90;;;;;;4978742;28;20056;-73
2022/03/25 08:11:55;;;;;;;;;;;7.50;99.90;;;;;;4970938;28;19955;-73
2022/03/25 08:14:22;;;;;;;;;;;7.50;99.90;;;;;;5000836;28;19999;-73
2022/03/25 08:16:47;;;;;;;;;;;7.90;99.90;;;;;;5002557;28;20016;-73
2022/03/25 08:19:13;;;;;;;;;;;8.20;99.90;;;;;;5005285;28;20294;-73
2022/03/25 08:21:39;;;;;;;;;;;8.60;99.90;;;;;;5005936;28;19940;-73
2022/03/25 08:29:35;;;;;;;;;;;8.80;99.90;;;;;;4987625;28;19929;-73
2022/03/25 08:32:00;;;;;;;;;;;9.20;99.90;;;;;;4983310;28;20002;-73
2022/03/25 08:34:26;;;;;;;;;;;9.30;99.90;;;;;;4998690;28;19933;-73
2022/03/25 08:36:52;;;;;;;;;;;9.50;99.90;;;;;;4997679;28;19929;-73
2022/03/25 08:39:17;;;;;;;;;;;9.80;99.90;;;;;;5003325;28;20716;-73
2022/03/25 08:41:43;;;;;;;;;;;9.80;99.90;;;;;;4985989;28;19929;-73
2022/03/25 08:44:10;;;;;;;;;;;9.50;99.90;;;;;;5004695;28;19933;-73
2022/03/25 08:46:35;;;;;;;;;;;10.10;99.90;;;;;;4987612;28;19929;-73
2022/03/25 08:49:01;;;;;;;;;;;10.50;99.90;;;;;;5006326;28;20006;-73
2022/03/25 08:51:27;;;;;;;;;;;10.40;99.90;;;;;;4989808;28;19975;-73
2022/03/25 08:53:53;;;;;;;;;;;10.70;99.90;;;;;;4990453;28;20020;-73
2022/03/25 08:56:19;;;;;;;;;;;10.50;99.90;;;;;;5003894;28;19983;-74
2022/03/25 08:58:45;;;;;;;;;;;10.90;99.90;;;;;;5001428;28;19929;-73
2022/03/25 09:01:11;;;;;;;;;;;11.30;99.90;;;;;;4982647;28;19987;-71
2022/03/25 09:03:36;;;;;;;;;;;10.80;99.90;;;;;;4974165;28;19929;-73
2022/03/25 09:06:03;;;;;;;;;;;11.30;99.90;;;;;;4976819;28;20313;-73
2022/03/25 09:08:28;;;;;;;;;;;11.70;99.90;;;;;;4962997;28;19983;-74
2022/03/25 09:10:54;;;;;;;;;;;11.60;99.90;;;;;;4976419;28;20007;-74
2022/03/25 09:13:20;;;;;;;;;;;11.60;99.90;;;;;;5002497;28;19929;-73
2022/03/25 09:15:46;;;;;;;;;;;11.80;99.90;;;;;;5002281;28;19932;-73
2022/03/25 09:18:12;;;;;;;;;;;11.80;99.90;;;;;;4984136;28;19936;-73
2022/03/25 09:20:38;;;;;;;;;;;11.80;99.90;;;;;;4985078;28;19929;-73
2022/03/25 09:23:04;;;;;;;;;;;12.30;99.90;;;;;;5004075;28;19940;-74
2022/03/25 09:25:30;;;;;;;;;;;11.90;99.90;;;;;;4987515;28;19925;-73
2022/03/25 09:27:55;;;;;;;;;;;12.50;99.90;;;;;;4997320;28;19929;-73
2022/03/25 09:30:21;;;;;;;;;;;12.10;99.90;;;;;;4999146;28;20444;-73
2022/03/25 09:32:47;;;;;;;;;;;12.20;99.90;;;;;;4987373;28;19936;-73
2022/03/25 09:35:14;;;;;;;;;;;12.60;99.90;;;;;;4985521;28;19960;-73
2022/03/25 09:37:41;;;;;;;;;;;12.70;99.90;;;;;;4985818;28;19929;-74
2022/03/25 09:40:08;;;;;;;;;;;12.50;99.90;;;;;;4986258;28;19929;-73
2022/03/25 09:42:34;;;;;;;;;;;12.80;99.90;;;;;;4989464;28;20051;-73
2022/03/25 09:45:03;;;;;;;;;;;12.60;99.90;;;;;;4986676;28;20571;-73
2022/03/25 09:47:32;;;;;;;;;;;12.50;99.90;;;;;;4986538;28;19937;-73
2022/03/25 09:49:59;;;;;;;;;;;13.10;99.90;;;;;;5003796;28;19976;-73
2022/03/25 09:52:27;;;;;;;;;;;13.10;99.90;;;;;;4987162;28;20521;-73
2022/03/25 09:54:53;;;;;;;;;;;13.00;99.90;;;;;;4985380;28;19940;-73
2022/03/25 09:57:19;;;;;;;;;;;13.70;99.90;;;;;;4988272;28;19941;-73
2022/03/25 09:59:45;;;;;;;;;;;13.50;99.90;;;;;;4999344;28;19929;-73
2022/03/25 10:02:11;;;;;;;;;;;13.40;99.90;;;;;;5004418;28;19925;-74
2022/03/25 10:04:39;;;;;;;;;;;12.90;99.90;;;;;;5004417;28;19929;-73
2022/03/25 10:07:19;;;;;;;;;;;13.30;99.90;;;;;;4987438;28;20006;-73
2022/03/25 10:09:48;;;;;;;;;;;13.40;99.90;;;;;;5002749;28;19935;-73
2022/03/25 10:12:24;;;;;;;;;;;14.00;99.90;;;;;;4987005;28;19932;-73
2022/03/25 10:14:51;;;;;;;;;;;13.90;99.90;;;;;;4985841;28;20377;-73
2022/03/25 10:17:18;;;;;;;;;;;14.20;99.90;;;;;;5004367;28;19941;-73
2022/03/25 10:19:52;;;;;;;;;;;14.00;99.90;;;;;;4985093;28;19929;-74
2022/03/25 10:22:19;;;;;;;;;;;14.10;99.90;;;;;;4984586;28;20012;-74
2022/03/25 10:24:53;;;;;;;;;;;14.00;99.90;;;;;;5003761;28;19926;-73
2022/03/25 10:27:23;;;;;;;;;;;14.60;99.90;;;;;;4980057;28;19929;-73
2022/03/25 10:29:50;;;;;;;;;;;14.50;99.90;;;;;;5001476;28;20112;-73
2022/03/25 10:32:19;;;;;;;;;;;14.90;99.90;;;;;;5006152;28;19929;-73
2022/03/25 10:34:58;;;;;;;;;;;15.20;99.90;;;;;;5006854;28;19940;-73
2022/03/25 10:37:25;;;;;;;;;;;14.90;99.90;;;;;;5004437;28;19929;-74
2022/03/25 10:39:54;;;;;;;;;;;15.30;98.00;;;;;;4986047;28;19960;-74
2022/03/25 10:42:20;;;;;;;;;;;15.20;93.20;;;;;;5006725;28;19929;-74
2022/03/25 10:44:46;;;;;;;;;;;14.90;90.70;;;;;;5008068;28;19936;-74
2022/03/25 10:47:14;;;;;;;;;;;15.20;91.20;;;;;;4989758;28;20027;-74
2022/03/25 10:49:43;;;;;;;;;;;15.70;91.90;;;;;;5007945;28;20015;-74
2022/03/25 10:52:24;;;;;;;;;;;15.90;90.30;;;;;;4986956;28;19933;-74
2022/03/25 10:54:50;;;;;;;;;;;15.80;86.40;;;;;;4986613;28;19960;-75
2022/03/25 10:57:17;;;;;;;;;;;15.70;88.80;;;;;;4987234;28;19929;-74
2022/03/25 10:59:43;;;;;;;;;;;15.30;79.20;;;;;;5006765;28;19937;-74
2022/03/25 11:02:11;;;;;;;;;;;15.50;81.90;;;;;;5004645;28;20115;-74
2022/03/25 11:04:37;;;;;;;;;;;16.00;82.80;;;;;;5003491;28;19948;-74
2022/03/25 11:07:03;;;;;;;;;;;15.70;86.90;;;;;;4988155;28;20377;-73
2022/03/25 11:09:29;;;;;;;;;;;15.50;80.60;;;;;;5004256;28;20662;-73
2022/03/25 11:11:56;;;;;;;;;;;15.70;80.30;;;;;;4990053;28;19975;-73
2022/03/25 11:14:22;;;;;;;;;;;15.90;80.70;;;;;;4987101;28;19929;-73
2022/03/25 11:16:58;;;;;;;;;;;16.00;78.20;;;;;;5006193;28;19936;-73
2022/03/25 11:19:24;;;;;;;;;;;16.30;79.70;;;;;;4989653;28;20040;-73
2022/03/25 11:21:50;;;;;;;;;;;15.80;82.20;;;;;;5005138;28;19936;-73
2022/03/25 11:24:23;;;;;;;;;;;16.40;82.70;;;;;;4990628;28;19951;-73
2022/03/25 11:26:50;;;;;;;;;;;16.40;82.50;;;;;;5004158;28;20011;-73
2022/03/25 11:29:16;;;;;;;;;;;16.40;76.80;;;;;;5003357;28;19929;-73
2022/03/25 11:32:14;;;;;;;;;;;16.00;79.40;;;;;;5007762;28;19964;-73
2022/03/25 11:34:40;;;;;;;;;;;16.50;85.10;;;;;;4947693;28;19937;-73
2022/03/25 11:37:16;;;;;;;;;;;16.80;82.10;;;;;;4988624;28;19929;-73
2022/03/25 11:39:42;;;;;;;;;;;17.20;75.60;;;;;;4988020;28;19933;-73
2022/03/25 11:42:28;;;;;;;;;;;16.90;73.20;;;;;;4987559;28;19987;-73
2022/03/25 11:45:13;;;;;;;;;;;16.70;74.20;;;;;;4987706;28;19940;-73
2022/03/25 11:47:39;;;;;;;;;;;17.00;77.00;;;;;;4988618;28;20028;-73
2022/03/25 11:50:24;;;;;;;;;;;17.10;76.30;;;;;;4988539;28;19929;-73
2022/03/25 11:52:49;;;;;;;;;;;17.70;72.90;;;;;;5008903;28;20521;-73
2022/03/25 11:55:15;;;;;;;;;;;18.10;71.30;;;;;;4985136;28;19929;-73
2022/03/25 11:57:41;;;;;;;;;;;17.80;69.70;;;;;;5002891;28;19929;-73
2022/03/25 12:00:10;;;;;;;;;;;17.40;70.80;;;;;;5006010;28;20275;-74
2022/03/25 12:02:41;;;;;;;;;;;16.90;69.40;;;;;;4988876;28;20558;-73
2022/03/25 12:05:24;;;;;;;;;;;17.50;72.90;;;;;;4988610;28;20002;-73
2022/03/25 12:08:09;;;;;;;;;;;17.20;67.60;;;;;;4988498;28;19925;-73
2022/03/25 12:10:44;;;;;;;;;;;17.00;68.50;;;;;;4987124;28;19929;-73
2022/03/25 12:13:10;;;;;;;;;;;17.10;69.80;;;;;;4985263;28;20036;-73
2022/03/25 12:15:39;;;;;;;;;;;17.20;67.00;;;;;;4984480;28;20734;-73
2022/03/25 12:18:24;;;;;;;;;;;17.80;69.30;;;;;;4989875;28;20055;-73
2022/03/25 12:20:49;;;;;;;;;;;17.90;66.80;;;;;;5003633;28;20601;-73
2022/03/25 12:23:15;;;;;;;;;;;18.20;67.60;;;;;;4973307;28;19929;-73
2022/03/25 12:25:44;;;;;;;;;;;18.30;66.70;;;;;;5005617;28;20048;-74
2022/03/25 12:28:10;;;;;;;;;;;17.50;61.40;;;;;;5004591;28;20594;-74
2022/03/25 12:30:36;;;;;;;;;;;18.20;66.70;;;;;;4985853;28;19929;-73
2022/03/25 12:33:06;;;;;;;;;;;17.90;62.20;;;;;;4987292;28;19929;-73
2022/03/25 12:35:33;;;;;;;;;;;18.20;65.10;;;;;;4990429;28;19933;-73
2022/03/25 12:38:08;;;;;;;;;;;18.50;62.50;;;;;;4985470;28;20414;-73
2022/03/25 12:40:34;;;;;;;;;;;18.90;64.30;;;;;;4988161;28;20453;-73
2022/03/25 12:43:08;;;;;;;;;;;18.90;60.40;;;;;;4971506;28;19929;-73
2022/03/25 12:45:35;;;;;;;;;;;18.80;60.40;;;;;;4985739;28;19929;-73
2022/03/25 12:48:09;;;;;;;;;;;18.70;61.10;;;;;;4985675;28;19929;-74
2022/03/25 12:50:35;;;;;;;;;;;19.00;59.40;;;;;;4973114;28;20434;-74
2022/03/25 12:53:00;;;;;;;;;;;18.80;60.40;;;;;;4958218;28;19929;-74
2022/03/25 12:55:27;;;;;;;;;;;18.60;61.20;;;;;;5001593;28;19983;-74
2022/03/25 12:58:00;;;;;;;;;;;18.80;60.80;;;;;;4978245;28;20391;-74
2022/03/25 13:00:30;;;;;;;;;;;19.40;61.00;;;;;;4957729;28;19941;-74
2022/03/25 13:02:56;;;;;;;;;;;18.90;60.00;;;;;;5005673;28;19944;-74
2022/03/25 13:05:24;;;;;;;;;;;19.20;59.10;;;;;;4970514;28;20949;-74
2022/03/25 13:07:52;;;;;;;;;;;19.20;62.40;;;;;;4950008;28;19939;-74
2022/03/25 13:10:18;;;;;;;;;;;19.20;61.40;;;;;;4980907;28;20413;-74
2022/03/25 13:12:50;;;;;;;;;;;18.90;60.40;;;;;;5001939;28;19939;-74
2022/03/25 13:15:16;;;;;;;;;;;19.10;58.80;;;;;;4980974;28;19929;-74
2022/03/25 13:17:43;;;;;;;;;;;19.20;57.10;;;;;;5004652;28;19979;-74
2022/03/25 13:20:16;;;;;;;;;;;18.80;59.00;;;;;;5000928;28;20771;-74
2022/03/25 13:22:57;;;;;;;;;;;18.80;58.30;;;;;;4989900;28;20031;-74
2022/03/25 13:25:34;;;;;;;;;;;19.00;58.70;;;;;;5002297;28;20313;-74
2022/03/25 13:28:00;;;;;;;;;;;19.00;54.40;;;;;;4986323;28;19937;-74
2022/03/25 13:30:27;;;;;;;;;;;18.90;57.50;;;;;;4972191;28;19936;-73
2022/03/25 13:32:58;;;;;;;;;;;18.30;55.20;;;;;;4955642;28;19932;-74
2022/03/25 13:35:29;;;;;;;;;;;18.60;58.50;;;;;;4974312;28;19968;-74
2022/03/25 13:38:03;;;;;;;;;;;19.00;55.80;;;;;;4981997;28;19933;-74
2022/03/25 13:40:33;;;;;;;;;;;19.20;54.40;;;;;;4970896;28;20387;-74
2022/03/25 13:43:00;;;;;;;;;;;19.10;60.30;;;;;;4981053;28;19933;-74
2022/03/25 13:45:26;;;;;;;;;;;18.80;54.90;;;;;;4971088;28;19929;-74
2022/03/25 13:48:02;;;;;;;;;;;18.90;56.60;;;;;;4966061;28;19982;-73
2022/03/25 13:50:28;;;;;;;;;;;19.00;54.30;;;;;;4982655;28;20355;-74
2022/03/25 13:53:09;;;;;;;;;;;19.00;55.20;;;;;;4968399;28;20000;-74
2022/03/25 13:55:41;;;;;;;;;;;18.50;54.10;;;;;;4986062;28;20154;-74
2022/03/25 13:58:11;;;;;;;;;;;18.50;53.80;;;;;;4962427;28;19929;-74
2022/03/25 14:00:39;;;;;;;;;;;19.10;56.90;;;;;;4965346;28;19936;-74
2022/03/25 14:03:05;;;;;;;;;;;19.20;55.30;;;;;;4981430;28;20000;-74
2022/03/25 14:05:34;;;;;;;;;;;19.50;54.40;;;;;;4981040;28;19936;-73
2022/03/25 14:08:00;;;;;;;;;;;18.90;53.20;;;;;;4973336;28;20903;-74
2022/03/25 14:10:26;;;;;;;;;;;19.10;54.90;;;;;;4979700;28;19940;-74
2022/03/25 14:13:10;;;;;;;;;;;19.00;52.00;;;;;;4977848;28;19929;-74
2022/03/25 14:15:35;;;;;;;;;;;19.30;55.10;;;;;;4963591;28;19929;-74
2022/03/25 14:18:01;;;;;;;;;;;19.10;51.80;;;;;;4971278;28;19936;-74
2022/03/25 14:20:30;;;;;;;;;;;19.00;55.60;;;;;;4961673;28;21910;-74
2022/03/25 14:22:58;;;;;;;;;;;19.00;57.00;;;;;;4942035;28;19936;-74
2022/03/25 14:25:30;;;;;;;;;;;19.10;54.80;;;;;;4975881;28;19929;-74
2022/03/25 14:27:59;;;;;;;;;;;19.20;54.20;;;;;;4957878;28;19929;-74
2022/03/25 14:30:28;;;;;;;;;;;19.00;54.80;;;;;;4979248;28;19931;-74